sensor_id;sensor_type;location;lat;lon;timestamp;P1;durP1;ratioP1;P2;durP2;ratioP2
70715;SDS011;59053;50.832;12.882;2022-07-10T00:00:03;47.87;;;3.60;;
70715;SDS011;59053;50.832;12.882;2022-07-10T00:02:39;4.47;;;1.38;;
70715;SDS011;59053;50.832;12.882;2022-07-10T00:05:05;5.25;;;1.40;;
70715;SDS011;59053;50.832;12.882;2022-07-10T00:07:31;4.20;;;1.30;;
70715;SDS011;59053;50.832;12.882;2022-07-10T00:09:56;5.70;;;1.23;;
70715;SDS011;59053;50.832;12.882;2022-07-10T00:12:21;5.97;;;1.63;;
70715;SDS011;59053;50.832;12.882;2022-07-10T00:14:47;2.53;;;1.30;;
70715;SDS011;59053;50.832;12.882;2022-07-10T00:17:12;7.20;;;1.50;;
70715;SDS011;59053;50.832;12.882;2022-07-10T00:19:38;6.90;;;1.40;;
70715;SDS011;59053;50.832;12.882;2022-07-10T00:22:03;4.78;;;1.30;;
70715;SDS011;59053;50.832;12.882;2022-07-10T00:24:29;5.53;;;1.50;;
70715;SDS011;59053;50.832;12.882;2022-07-10T00:26:54;6.13;;;1.50;;
70715;SDS011;59053;50.832;12.882;2022-07-10T00:29:19;3.40;;;1.20;;
70715;SDS011;59053;50.832;12.882;2022-07-10T00:31:45;4.53;;;1.53;;
70715;SDS011;59053;50.832;12.882;2022-07-10T00:34:10;3.70;;;1.60;;
70715;SDS011;59053;50.832;12.882;2022-07-10T00:36:36;5.50;;;1.58;;
70715;SDS011;59053;50.832;12.882;2022-07-10T00:39:02;5.57;;;1.50;;
70715;SDS011;59053;50.832;12.882;2022-07-10T00:41:27;5.20;;;1.60;;
70715;SDS011;59053;50.832;12.882;2022-07-10T00:43:56;5.63;;;1.70;;
70715;SDS011;59053;50.832;12.882;2022-07-10T00:46:23;3.97;;;1.30;;
70715;SDS011;59053;50.832;12.882;2022-07-10T00:48:49;4.25;;;1.40;;
70715;SDS011;59053;50.832;12.882;2022-07-10T00:51:16;4.95;;;1.23;;
70715;SDS011;59053;50.832;12.882;2022-07-10T00:53:43;4.22;;;1.50;;
70715;SDS011;59053;50.832;12.882;2022-07-10T00:56:10;7.40;;;1.50;;
70715;SDS011;59053;50.832;12.882;2022-07-10T00:58:35;3.03;;;1.30;;
70715;SDS011;59053;50.832;12.882;2022-07-10T01:01:01;5.82;;;1.42;;
70715;SDS011;59053;50.832;12.882;2022-07-10T01:03:27;3.27;;;1.20;;
70715;SDS011;59053;50.832;12.882;2022-07-10T01:05:52;5.53;;;1.20;;
70715;SDS011;59053;50.832;12.882;2022-07-10T01:08:18;7.80;;;1.38;;
70715;SDS011;59053;50.832;12.882;2022-07-10T01:10:43;6.87;;;1.37;;
70715;SDS011;59053;50.832;12.882;2022-07-10T01:13:09;6.45;;;1.50;;
70715;SDS011;59053;50.832;12.882;2022-07-10T01:15:35;3.87;;;1.20;;
70715;SDS011;59053;50.832;12.882;2022-07-10T01:18:01;2.85;;;1.13;;
70715;SDS011;59053;50.832;12.882;2022-07-10T01:20:30;3.87;;;1.20;;
70715;SDS011;59053;50.832;12.882;2022-07-10T01:22:57;3.53;;;1.20;;
70715;SDS011;59053;50.832;12.882;2022-07-10T01:25:22;5.17;;;1.13;;
70715;SDS011;59053;50.832;12.882;2022-07-10T01:27:47;7.45;;;1.25;;
70715;SDS011;59053;50.832;12.882;2022-07-10T01:30:13;6.10;;;1.47;;
70715;SDS011;59053;50.832;12.882;2022-07-10T01:32:39;3.53;;;1.20;;
70715;SDS011;59053;50.832;12.882;2022-07-10T01:35:05;10.27;;;1.25;;
70715;SDS011;59053;50.832;12.882;2022-07-10T01:37:31;3.35;;;1.20;;
70715;SDS011;59053;50.832;12.882;2022-07-10T01:39:56;3.63;;;1.00;;
70715;SDS011;59053;50.832;12.882;2022-07-10T01:42:22;5.50;;;1.40;;
70715;SDS011;59053;50.832;12.882;2022-07-10T01:44:47;3.13;;;1.13;;
70715;SDS011;59053;50.832;12.882;2022-07-10T01:47:12;4.73;;;1.30;;
70715;SDS011;59053;50.832;12.882;2022-07-10T01:49:38;2.37;;;1.07;;
70715;SDS011;59053;50.832;12.882;2022-07-10T01:52:03;4.03;;;1.23;;
70715;SDS011;59053;50.832;12.882;2022-07-10T01:54:32;7.70;;;1.60;;
70715;SDS011;59053;50.832;12.882;2022-07-10T01:56:58;6.20;;;1.50;;
70715;SDS011;59053;50.832;12.882;2022-07-10T01:59:23;6.23;;;1.27;;
70715;SDS011;59053;50.832;12.882;2022-07-10T02:01:49;5.73;;;1.50;;
70715;SDS011;59053;50.832;12.882;2022-07-10T02:04:14;4.57;;;1.40;;
70715;SDS011;59053;50.832;12.882;2022-07-10T02:06:58;9.23;;;1.30;;
70715;SDS011;59053;50.832;12.882;2022-07-10T02:09:23;4.17;;;1.30;;
70715;SDS011;59053;50.832;12.882;2022-07-10T02:11:49;3.03;;;1.27;;
70715;SDS011;59053;50.832;12.882;2022-07-10T02:14:14;6.55;;;1.30;;
70715;SDS011;59053;50.832;12.882;2022-07-10T02:16:40;3.47;;;1.30;;
70715;SDS011;59053;50.832;12.882;2022-07-10T02:19:05;5.60;;;1.30;;
70715;SDS011;59053;50.832;12.882;2022-07-10T02:21:30;4.20;;;1.40;;
70715;SDS011;59053;50.832;12.882;2022-07-10T02:23:56;4.97;;;1.40;;
70715;SDS011;59053;50.832;12.882;2022-07-10T02:26:21;3.22;;;1.20;;
70715;SDS011;59053;50.832;12.882;2022-07-10T02:28:46;7.10;;;1.50;;
70715;SDS011;59053;50.832;12.882;2022-07-10T02:31:12;4.70;;;1.30;;
70715;SDS011;59053;50.832;12.882;2022-07-10T02:33:37;3.97;;;1.20;;
70715;SDS011;59053;50.832;12.882;2022-07-10T02:36:03;4.60;;;1.30;;
70715;SDS011;59053;50.832;12.882;2022-07-10T02:38:29;5.47;;;1.55;;
70715;SDS011;59053;50.832;12.882;2022-07-10T02:40:54;6.53;;;1.23;;
70715;SDS011;59053;50.832;12.882;2022-07-10T02:43:20;3.47;;;1.20;;
70715;SDS011;59053;50.832;12.882;2022-07-10T02:45:45;6.13;;;1.40;;
70715;SDS011;59053;50.832;12.882;2022-07-10T02:48:11;3.90;;;1.20;;
70715;SDS011;59053;50.832;12.882;2022-07-10T02:50:36;5.63;;;1.20;;
70715;SDS011;59053;50.832;12.882;2022-07-10T02:53:01;3.10;;;1.10;;
70715;SDS011;59053;50.832;12.882;2022-07-10T02:55:28;6.75;;;1.55;;
70715;SDS011;59053;50.832;12.882;2022-07-10T02:57:53;6.23;;;1.17;;
70715;SDS011;59053;50.832;12.882;2022-07-10T03:00:19;6.87;;;1.30;;
70715;SDS011;59053;50.832;12.882;2022-07-10T03:02:44;7.07;;;1.50;;
70715;SDS011;59053;50.832;12.882;2022-07-10T03:05:10;8.23;;;1.40;;
70715;SDS011;59053;50.832;12.882;2022-07-10T03:07:35;4.90;;;1.27;;
70715;SDS011;59053;50.832;12.882;2022-07-10T03:10:00;9.33;;;1.70;;
70715;SDS011;59053;50.832;12.882;2022-07-10T03:12:26;5.37;;;1.20;;
70715;SDS011;59053;50.832;12.882;2022-07-10T03:14:51;5.65;;;1.20;;
70715;SDS011;59053;50.832;12.882;2022-07-10T03:17:16;3.33;;;1.27;;
70715;SDS011;59053;50.832;12.882;2022-07-10T03:19:42;5.43;;;1.20;;
70715;SDS011;59053;50.832;12.882;2022-07-10T03:22:07;5.00;;;1.50;;
70715;SDS011;59053;50.832;12.882;2022-07-10T03:24:33;2.55;;;1.20;;
70715;SDS011;59053;50.832;12.882;2022-07-10T03:26:58;5.20;;;1.40;;
70715;SDS011;59053;50.832;12.882;2022-07-10T03:29:24;7.03;;;1.40;;
70715;SDS011;59053;50.832;12.882;2022-07-10T03:31:49;4.70;;;1.37;;
70715;SDS011;59053;50.832;12.882;2022-07-10T03:34:14;4.32;;;1.40;;
70715;SDS011;59053;50.832;12.882;2022-07-10T03:36:40;3.00;;;1.20;;
70715;SDS011;59053;50.832;12.882;2022-07-10T03:39:05;3.83;;;1.27;;
70715;SDS011;59053;50.832;12.882;2022-07-10T03:41:30;3.90;;;1.27;;
70715;SDS011;59053;50.832;12.882;2022-07-10T03:43:56;3.97;;;1.20;;
70715;SDS011;59053;50.832;12.882;2022-07-10T03:46:21;10.10;;;1.25;;
70715;SDS011;59053;50.832;12.882;2022-07-10T03:48:46;5.53;;;1.30;;
70715;SDS011;59053;50.832;12.882;2022-07-10T03:51:12;6.13;;;1.40;;
70715;SDS011;59053;50.832;12.882;2022-07-10T03:53:37;5.87;;;1.30;;
70715;SDS011;59053;50.832;12.882;2022-07-10T03:56:02;7.57;;;1.30;;
70715;SDS011;59053;50.832;12.882;2022-07-10T03:58:28;4.20;;;1.30;;
70715;SDS011;59053;50.832;12.882;2022-07-10T04:00:54;3.37;;;1.20;;
70715;SDS011;59053;50.832;12.882;2022-07-10T04:03:19;8.25;;;1.40;;
70715;SDS011;59053;50.832;12.882;2022-07-10T04:05:45;2.53;;;1.20;;
70715;SDS011;59053;50.832;12.882;2022-07-10T04:08:10;3.83;;;1.10;;
70715;SDS011;59053;50.832;12.882;2022-07-10T04:10:35;4.57;;;1.30;;
70715;SDS011;59053;50.832;12.882;2022-07-10T04:13:01;4.97;;;1.27;;
70715;SDS011;59053;50.832;12.882;2022-07-10T04:15:27;3.37;;;1.30;;
70715;SDS011;59053;50.832;12.882;2022-07-10T04:17:52;6.90;;;1.40;;
70715;SDS011;59053;50.832;12.882;2022-07-10T04:20:34;3.90;;;1.27;;
70715;SDS011;59053;50.832;12.882;2022-07-10T04:23:00;3.13;;;1.10;;
70715;SDS011;59053;50.832;12.882;2022-07-10T04:25:25;6.72;;;1.40;;
70715;SDS011;59053;50.832;12.882;2022-07-10T04:27:51;3.93;;;1.20;;
70715;SDS011;59053;50.832;12.882;2022-07-10T04:30:16;4.00;;;1.00;;
70715;SDS011;59053;50.832;12.882;2022-07-10T04:32:41;4.97;;;1.20;;
70715;SDS011;59053;50.832;12.882;2022-07-10T04:35:07;8.37;;;1.40;;
70715;SDS011;59053;50.832;12.882;2022-07-10T04:37:33;6.50;;;1.45;;
70715;SDS011;59053;50.832;12.882;2022-07-10T04:39:59;7.95;;;1.35;;
70715;SDS011;59053;50.832;12.882;2022-07-10T04:42:25;7.27;;;1.17;;
70715;SDS011;59053;50.832;12.882;2022-07-10T04:44:51;2.67;;;1.00;;
70715;SDS011;59053;50.832;12.882;2022-07-10T04:47:16;8.30;;;1.37;;
70715;SDS011;59053;50.832;12.882;2022-07-10T04:49:41;5.47;;;1.05;;
70715;SDS011;59053;50.832;12.882;2022-07-10T04:52:07;5.27;;;1.00;;
70715;SDS011;59053;50.832;12.882;2022-07-10T04:54:32;3.83;;;1.20;;
70715;SDS011;59053;50.832;12.882;2022-07-10T04:56:58;4.23;;;0.97;;
70715;SDS011;59053;50.832;12.882;2022-07-10T04:59:23;5.20;;;1.10;;
70715;SDS011;59053;50.832;12.882;2022-07-10T05:01:48;4.30;;;1.23;;
70715;SDS011;59053;50.832;12.882;2022-07-10T05:04:14;2.53;;;0.93;;
70715;SDS011;59053;50.832;12.882;2022-07-10T05:06:39;6.23;;;1.20;;
70715;SDS011;59053;50.832;12.882;2022-07-10T05:09:05;1.97;;;1.00;;
70715;SDS011;59053;50.832;12.882;2022-07-10T05:11:30;3.75;;;1.10;;
70715;SDS011;59053;50.832;12.882;2022-07-10T05:13:56;4.20;;;1.10;;
70715;SDS011;59053;50.832;12.882;2022-07-10T05:16:22;5.03;;;1.03;;
70715;SDS011;59053;50.832;12.882;2022-07-10T05:18:47;5.37;;;1.00;;
70715;SDS011;59053;50.832;12.882;2022-07-10T05:21:13;5.10;;;1.10;;
70715;SDS011;59053;50.832;12.882;2022-07-10T05:23:38;4.37;;;1.23;;
70715;SDS011;59053;50.832;12.882;2022-07-10T05:26:04;4.68;;;1.20;;
70715;SDS011;59053;50.832;12.882;2022-07-10T05:28:30;4.77;;;1.10;;
70715;SDS011;59053;50.832;12.882;2022-07-10T05:30:55;3.03;;;1.10;;
70715;SDS011;59053;50.832;12.882;2022-07-10T05:33:21;2.57;;;0.87;;
70715;SDS011;59053;50.832;12.882;2022-07-10T05:35:46;6.03;;;1.10;;
70715;SDS011;59053;50.832;12.882;2022-07-10T05:38:11;4.40;;;1.00;;
70715;SDS011;59053;50.832;12.882;2022-07-10T05:40:37;5.37;;;1.00;;
70715;SDS011;59053;50.832;12.882;2022-07-10T05:43:02;8.80;;;1.10;;
70715;SDS011;59053;50.832;12.882;2022-07-10T05:45:28;4.80;;;1.43;;
70715;SDS011;59053;50.832;12.882;2022-07-10T05:47:54;2.85;;;0.90;;
70715;SDS011;59053;50.832;12.882;2022-07-10T05:50:19;4.60;;;1.30;;
70715;SDS011;59053;50.832;12.882;2022-07-10T05:52:45;5.55;;;1.10;;
70715;SDS011;59053;50.832;12.882;2022-07-10T05:55:10;9.27;;;1.13;;
70715;SDS011;59053;50.832;12.882;2022-07-10T05:57:36;3.43;;;0.97;;
70715;SDS011;59053;50.832;12.882;2022-07-10T06:00:03;5.47;;;1.00;;
70715;SDS011;59053;50.832;12.882;2022-07-10T06:02:36;4.37;;;0.97;;
70715;SDS011;59053;50.832;12.882;2022-07-10T06:05:02;2.30;;;0.85;;
70715;SDS011;59053;50.832;12.882;2022-07-10T06:07:27;2.40;;;0.80;;
70715;SDS011;59053;50.832;12.882;2022-07-10T06:09:53;6.37;;;1.10;;
70715;SDS011;59053;50.832;12.882;2022-07-10T06:12:19;6.70;;;1.45;;
70715;SDS011;59053;50.832;12.882;2022-07-10T06:14:45;2.72;;;1.00;;
70715;SDS011;59053;50.832;12.882;2022-07-10T06:17:10;3.97;;;1.23;;
70715;SDS011;59053;50.832;12.882;2022-07-10T06:19:36;5.57;;;1.10;;
70715;SDS011;59053;50.832;12.882;2022-07-10T06:22:02;1.77;;;0.90;;
70715;SDS011;59053;50.832;12.882;2022-07-10T06:24:46;3.17;;;0.88;;
70715;SDS011;59053;50.832;12.882;2022-07-10T06:27:11;3.93;;;1.13;;
70715;SDS011;59053;50.832;12.882;2022-07-10T06:29:36;4.50;;;1.00;;
70715;SDS011;59053;50.832;12.882;2022-07-10T06:32:02;2.93;;;0.93;;
70715;SDS011;59053;50.832;12.882;2022-07-10T06:34:28;0.60;;;0.50;;
70715;SDS011;59053;50.832;12.882;2022-07-10T06:36:53;1.80;;;0.83;;
70715;SDS011;59053;50.832;12.882;2022-07-10T06:39:19;4.15;;;1.00;;
70715;SDS011;59053;50.832;12.882;2022-07-10T06:41:45;2.90;;;1.10;;
70715;SDS011;59053;50.832;12.882;2022-07-10T06:44:10;2.33;;;1.10;;
70715;SDS011;59053;50.832;12.882;2022-07-10T06:46:35;3.28;;;1.30;;
70715;SDS011;59053;50.832;12.882;2022-07-10T06:49:01;3.57;;;1.20;;
70715;SDS011;59053;50.832;12.882;2022-07-10T06:51:26;2.50;;;1.60;;
70715;SDS011;59053;50.832;12.882;2022-07-10T06:53:52;3.80;;;1.20;;
70715;SDS011;59053;50.832;12.882;2022-07-10T06:56:17;3.40;;;1.40;;
70715;SDS011;59053;50.832;12.882;2022-07-10T06:58:43;4.17;;;1.30;;
70715;SDS011;59053;50.832;12.882;2022-07-10T07:01:08;3.75;;;1.20;;
70715;SDS011;59053;50.832;12.882;2022-07-10T07:03:34;4.13;;;1.20;;
70715;SDS011;59053;50.832;12.882;2022-07-10T07:05:59;4.23;;;1.33;;
70715;SDS011;59053;50.832;12.882;2022-07-10T07:08:24;3.93;;;1.30;;
70715;SDS011;59053;50.832;12.882;2022-07-10T07:10:50;4.30;;;1.00;;
70715;SDS011;59053;50.832;12.882;2022-07-10T07:13:15;2.67;;;1.10;;
70715;SDS011;59053;50.832;12.882;2022-07-10T07:15:40;4.07;;;1.37;;
70715;SDS011;59053;50.832;12.882;2022-07-10T07:18:11;5.10;;;1.48;;
70715;SDS011;59053;50.832;12.882;2022-07-10T07:20:41;5.10;;;1.30;;
70715;SDS011;59053;50.832;12.882;2022-07-10T07:23:25;4.05;;;1.30;;
70715;SDS011;59053;50.832;12.882;2022-07-10T07:25:50;3.93;;;2.13;;
70715;SDS011;59053;50.832;12.882;2022-07-10T07:28:16;4.03;;;1.40;;
70715;SDS011;59053;50.832;12.882;2022-07-10T07:30:43;10.20;;;1.67;;
70715;SDS011;59053;50.832;12.882;2022-07-10T07:33:09;3.15;;;1.50;;
70715;SDS011;59053;50.832;12.882;2022-07-10T07:35:34;3.70;;;1.70;;
70715;SDS011;59053;50.832;12.882;2022-07-10T07:38:00;3.10;;;1.50;;
70715;SDS011;59053;50.832;12.882;2022-07-10T07:40:26;6.28;;;1.90;;
70715;SDS011;59053;50.832;12.882;2022-07-10T07:42:52;8.63;;;2.10;;
70715;SDS011;59053;50.832;12.882;2022-07-10T07:45:18;5.45;;;1.80;;
70715;SDS011;59053;50.832;12.882;2022-07-10T07:50:10;3.47;;;1.90;;
70715;SDS011;59053;50.832;12.882;2022-07-10T07:52:36;3.50;;;1.38;;
70715;SDS011;59053;50.832;12.882;2022-07-10T07:55:01;3.10;;;1.30;;
70715;SDS011;59053;50.832;12.882;2022-07-10T07:57:27;2.58;;;1.25;;
70715;SDS011;59053;50.832;12.882;2022-07-10T07:59:52;5.23;;;1.00;;
70715;SDS011;59053;50.832;12.882;2022-07-10T08:02:18;5.83;;;1.53;;
70715;SDS011;59053;50.832;12.882;2022-07-10T08:04:43;5.80;;;1.40;;
70715;SDS011;59053;50.832;12.882;2022-07-10T08:07:09;5.30;;;1.30;;
70715;SDS011;59053;50.832;12.882;2022-07-10T08:09:34;4.43;;;1.20;;
70715;SDS011;59053;50.832;12.882;2022-07-10T08:12:00;4.27;;;1.27;;
70715;SDS011;59053;50.832;12.882;2022-07-10T08:14:25;3.95;;;1.20;;
70715;SDS011;59053;50.832;12.882;2022-07-10T08:16:50;5.90;;;1.60;;
70715;SDS011;59053;50.832;12.882;2022-07-10T08:19:16;3.27;;;1.30;;
70715;SDS011;59053;50.832;12.882;2022-07-10T08:21:41;2.53;;;1.00;;
70715;SDS011;59053;50.832;12.882;2022-07-10T08:24:06;5.13;;;1.70;;
70715;SDS011;59053;50.832;12.882;2022-07-10T08:26:32;5.47;;;2.05;;
70715;SDS011;59053;50.832;12.882;2022-07-10T08:28:57;5.87;;;2.00;;
70715;SDS011;59053;50.832;12.882;2022-07-10T08:31:23;8.20;;;2.20;;
70715;SDS011;59053;50.832;12.882;2022-07-10T08:33:48;4.03;;;1.90;;
70715;SDS011;59053;50.832;12.882;2022-07-10T08:36:14;5.40;;;2.10;;
70715;SDS011;59053;50.832;12.882;2022-07-10T08:38:39;7.23;;;2.50;;
70715;SDS011;59053;50.832;12.882;2022-07-10T08:41:05;6.00;;;2.40;;
70715;SDS011;59053;50.832;12.882;2022-07-10T08:43:30;5.68;;;2.65;;
70715;SDS011;59053;50.832;12.882;2022-07-10T08:45:56;5.47;;;2.53;;
70715;SDS011;59053;50.832;12.882;2022-07-10T08:48:23;5.35;;;2.50;;
70715;SDS011;59053;50.832;12.882;2022-07-10T08:50:51;9.63;;;2.67;;
70715;SDS011;59053;50.832;12.882;2022-07-10T08:53:29;8.17;;;2.83;;
70715;SDS011;59053;50.832;12.882;2022-07-10T08:55:59;6.00;;;2.78;;
70715;SDS011;59053;50.832;12.882;2022-07-10T08:58:26;4.22;;;2.45;;
70715;SDS011;59053;50.832;12.882;2022-07-10T09:00:52;6.38;;;2.70;;
70715;SDS011;59053;50.832;12.882;2022-07-10T09:03:18;6.22;;;3.13;;
70715;SDS011;59053;50.832;12.882;2022-07-10T09:05:43;6.37;;;2.83;;
70715;SDS011;59053;50.832;12.882;2022-07-10T09:08:22;6.05;;;2.60;;
70715;SDS011;59053;50.832;12.882;2022-07-10T09:10:53;7.73;;;3.00;;
70715;SDS011;59053;50.832;12.882;2022-07-10T09:13:30;5.38;;;2.80;;
70715;SDS011;59053;50.832;12.882;2022-07-10T09:15:55;8.13;;;2.80;;
70715;SDS011;59053;50.832;12.882;2022-07-10T09:18:23;6.17;;;2.70;;
70715;SDS011;59053;50.832;12.882;2022-07-10T09:20:48;7.32;;;2.50;;
70715;SDS011;59053;50.832;12.882;2022-07-10T09:23:15;4.90;;;2.35;;
70715;SDS011;59053;50.832;12.882;2022-07-10T09:25:42;5.45;;;2.22;;
70715;SDS011;59053;50.832;12.882;2022-07-10T09:28:08;4.77;;;1.90;;
70715;SDS011;59053;50.832;12.882;2022-07-10T09:30:37;4.60;;;2.17;;
70715;SDS011;59053;50.832;12.882;2022-07-10T09:38:51;4.45;;;1.77;;
70715;SDS011;59053;50.832;12.882;2022-07-10T09:43:53;4.68;;;1.40;;
70715;SDS011;59053;50.832;12.882;2022-07-10T09:46:33;5.20;;;1.30;;
70715;SDS011;59053;50.832;12.882;2022-07-10T09:49:00;4.20;;;1.40;;
70715;SDS011;59053;50.832;12.882;2022-07-10T09:51:34;2.85;;;1.45;;
70715;SDS011;59053;50.832;12.882;2022-07-10T09:54:07;5.80;;;1.60;;
70715;SDS011;59053;50.832;12.882;2022-07-10T09:56:34;1.23;;;0.93;;
70715;SDS011;59053;50.832;12.882;2022-07-10T09:59:06;2.73;;;1.40;;
70715;SDS011;59053;50.832;12.882;2022-07-10T10:01:35;3.03;;;1.08;;
70715;SDS011;59053;50.832;12.882;2022-07-10T10:04:01;3.22;;;1.10;;
70715;SDS011;59053;50.832;12.882;2022-07-10T10:06:29;2.90;;;1.50;;
70715;SDS011;59053;50.832;12.882;2022-07-10T10:08:56;3.40;;;1.50;;
70715;SDS011;59053;50.832;12.882;2022-07-10T10:11:21;2.33;;;1.40;;
70715;SDS011;59053;50.832;12.882;2022-07-10T10:13:49;3.10;;;1.50;;
70715;SDS011;59053;50.832;12.882;2022-07-10T10:16:15;6.10;;;1.65;;
70715;SDS011;59053;50.832;12.882;2022-07-10T10:18:42;3.03;;;1.20;;
70715;SDS011;59053;50.832;12.882;2022-07-10T10:21:26;4.03;;;1.25;;
70715;SDS011;59053;50.832;12.882;2022-07-10T10:23:53;5.20;;;1.47;;
70715;SDS011;59053;50.832;12.882;2022-07-10T10:26:19;6.85;;;1.85;;
70715;SDS011;59053;50.832;12.882;2022-07-10T10:28:45;3.75;;;1.48;;
70715;SDS011;59053;50.832;12.882;2022-07-10T10:31:11;3.20;;;1.47;;
70715;SDS011;59053;50.832;12.882;2022-07-10T10:36:08;6.18;;;1.65;;
70715;SDS011;59053;50.832;12.882;2022-07-10T10:41:27;4.28;;;1.40;;
70715;SDS011;59053;50.832;12.882;2022-07-10T10:46:38;5.80;;;1.50;;
70715;SDS011;59053;50.832;12.882;2022-07-10T10:49:49;5.07;;;1.23;;
70715;SDS011;59053;50.832;12.882;2022-07-10T10:52:15;4.50;;;1.50;;
70715;SDS011;59053;50.832;12.882;2022-07-10T10:57:35;3.92;;;1.30;;
70715;SDS011;59053;50.832;12.882;2022-07-10T11:00:05;4.60;;;1.40;;
70715;SDS011;59053;50.832;12.882;2022-07-10T11:02:33;3.58;;;1.25;;
70715;SDS011;59053;50.832;12.882;2022-07-10T11:07:53;4.75;;;1.60;;
70715;SDS011;59053;50.832;12.882;2022-07-10T11:10:26;6.35;;;1.80;;
70715;SDS011;59053;50.832;12.882;2022-07-10T11:15:21;3.13;;;1.13;;
70715;SDS011;59053;50.832;12.882;2022-07-10T11:17:46;4.63;;;1.50;;
70715;SDS011;59053;50.832;12.882;2022-07-10T11:20:12;6.85;;;1.90;;
70715;SDS011;59053;50.832;12.882;2022-07-10T11:28:10;3.17;;;1.52;;
70715;SDS011;59053;50.832;12.882;2022-07-10T11:33:15;7.55;;;1.50;;
70715;SDS011;59053;50.832;12.882;2022-07-10T11:35:43;3.50;;;1.10;;
70715;SDS011;59053;50.832;12.882;2022-07-10T11:38:10;3.40;;;1.25;;
70715;SDS011;59053;50.832;12.882;2022-07-10T11:40:36;3.43;;;1.30;;
70715;SDS011;59053;50.832;12.882;2022-07-10T11:43:02;4.45;;;1.10;;
70715;SDS011;59053;50.832;12.882;2022-07-10T11:45:32;3.53;;;1.40;;
70715;SDS011;59053;50.832;12.882;2022-07-10T11:47:58;4.63;;;1.50;;
70715;SDS011;59053;50.832;12.882;2022-07-10T11:50:24;2.72;;;1.10;;
70715;SDS011;59053;50.832;12.882;2022-07-10T11:52:51;4.97;;;1.33;;
70715;SDS011;59053;50.832;12.882;2022-07-10T11:55:21;6.33;;;1.60;;
70715;SDS011;59053;50.832;12.882;2022-07-10T11:57:47;7.30;;;1.43;;
70715;SDS011;59053;50.832;12.882;2022-07-10T12:00:25;4.60;;;1.42;;
70715;SDS011;59053;50.832;12.882;2022-07-10T12:02:51;2.80;;;1.27;;
70715;SDS011;59053;50.832;12.882;2022-07-10T12:05:33;5.00;;;1.60;;
70715;SDS011;59053;50.832;12.882;2022-07-10T12:08:00;2.65;;;1.10;;
70715;SDS011;59053;50.832;12.882;2022-07-10T12:10:26;4.87;;;1.53;;
70715;SDS011;59053;50.832;12.882;2022-07-10T12:12:52;4.40;;;1.30;;
70715;SDS011;59053;50.832;12.882;2022-07-10T12:15:31;4.07;;;1.20;;
70715;SDS011;59053;50.832;12.882;2022-07-10T12:17:57;2.88;;;1.23;;
70715;SDS011;59053;50.832;12.882;2022-07-10T12:20:22;3.70;;;1.40;;
70715;SDS011;59053;50.832;12.882;2022-07-10T12:22:48;4.27;;;1.40;;
70715;SDS011;59053;50.832;12.882;2022-07-10T12:25:13;4.82;;;1.40;;
70715;SDS011;59053;50.832;12.882;2022-07-10T12:27:39;3.93;;;1.40;;
70715;SDS011;59053;50.832;12.882;2022-07-10T12:30:05;3.78;;;1.40;;
70715;SDS011;59053;50.832;12.882;2022-07-10T12:32:30;4.20;;;1.50;;
70715;SDS011;59053;50.832;12.882;2022-07-10T12:34:58;3.70;;;1.30;;
70715;SDS011;59053;50.832;12.882;2022-07-10T12:37:23;3.10;;;1.57;;
70715;SDS011;59053;50.832;12.882;2022-07-10T12:39:49;4.77;;;1.70;;
70715;SDS011;59053;50.832;12.882;2022-07-10T12:42:27;3.20;;;1.30;;
70715;SDS011;59053;50.832;12.882;2022-07-10T12:45:08;4.30;;;1.40;;
70715;SDS011;59053;50.832;12.882;2022-07-10T12:47:44;4.47;;;1.40;;
70715;SDS011;59053;50.832;12.882;2022-07-10T12:50:11;7.45;;;1.52;;
70715;SDS011;59053;50.832;12.882;2022-07-10T12:52:37;2.47;;;1.30;;
70715;SDS011;59053;50.832;12.882;2022-07-10T12:55:06;5.53;;;1.60;;
70715;SDS011;59053;50.832;12.882;2022-07-10T12:57:54;5.50;;;1.42;;
70715;SDS011;59053;50.832;12.882;2022-07-10T13:00:22;3.85;;;1.30;;
70715;SDS011;59053;50.832;12.882;2022-07-10T13:02:49;4.32;;;1.40;;
70715;SDS011;59053;50.832;12.882;2022-07-10T13:08:14;5.03;;;1.70;;
70715;SDS011;59053;50.832;12.882;2022-07-10T13:10:50;4.63;;;1.75;;
70715;SDS011;59053;50.832;12.882;2022-07-10T13:13:16;3.90;;;1.17;;
70715;SDS011;59053;50.832;12.882;2022-07-10T13:15:42;5.13;;;1.50;;
70715;SDS011;59053;50.832;12.882;2022-07-10T13:18:22;8.85;;;1.45;;
70715;SDS011;59053;50.832;12.882;2022-07-10T13:20:51;4.53;;;1.40;;
70715;SDS011;59053;50.832;12.882;2022-07-10T13:23:17;4.07;;;1.40;;
70715;SDS011;59053;50.832;12.882;2022-07-10T13:25:50;7.90;;;1.60;;
70715;SDS011;59053;50.832;12.882;2022-07-10T13:28:15;5.80;;;1.50;;
70715;SDS011;59053;50.832;12.882;2022-07-10T13:30:44;5.85;;;1.40;;
70715;SDS011;59053;50.832;12.882;2022-07-10T13:33:09;4.07;;;1.48;;
70715;SDS011;59053;50.832;12.882;2022-07-10T13:35:35;5.97;;;1.50;;
70715;SDS011;59053;50.832;12.882;2022-07-10T13:38:01;5.60;;;1.50;;
70715;SDS011;59053;50.832;12.882;2022-07-10T13:40:28;5.68;;;1.40;;
70715;SDS011;59053;50.832;12.882;2022-07-10T13:42:57;2.80;;;1.05;;
70715;SDS011;59053;50.832;12.882;2022-07-10T13:45:23;6.33;;;1.17;;
70715;SDS011;59053;50.832;12.882;2022-07-10T13:47:50;5.07;;;1.33;;
70715;SDS011;59053;50.832;12.882;2022-07-10T13:50:15;3.60;;;1.23;;
70715;SDS011;59053;50.832;12.882;2022-07-10T13:52:40;4.17;;;1.70;;
70715;SDS011;59053;50.832;12.882;2022-07-10T13:55:06;5.43;;;1.42;;
70715;SDS011;59053;50.832;12.882;2022-07-10T13:57:32;4.83;;;1.10;;
70715;SDS011;59053;50.832;12.882;2022-07-10T13:59:58;4.40;;;1.00;;
70715;SDS011;59053;50.832;12.882;2022-07-10T14:02:23;2.60;;;1.20;;
70715;SDS011;59053;50.832;12.882;2022-07-10T14:04:48;2.37;;;1.00;;
70715;SDS011;59053;50.832;12.882;2022-07-10T14:07:14;4.67;;;1.60;;
70715;SDS011;59053;50.832;12.882;2022-07-10T14:09:39;5.50;;;1.20;;
70715;SDS011;59053;50.832;12.882;2022-07-10T14:12:07;2.97;;;0.93;;
70715;SDS011;59053;50.832;12.882;2022-07-10T14:14:33;4.65;;;1.08;;
70715;SDS011;59053;50.832;12.882;2022-07-10T14:16:58;3.93;;;1.00;;
70715;SDS011;59053;50.832;12.882;2022-07-10T14:19:23;3.33;;;1.20;;
70715;SDS011;59053;50.832;12.882;2022-07-10T14:21:49;3.20;;;1.17;;
70715;SDS011;59053;50.832;12.882;2022-07-10T14:24:14;3.07;;;0.90;;
70715;SDS011;59053;50.832;12.882;2022-07-10T14:26:39;4.00;;;1.30;;
70715;SDS011;59053;50.832;12.882;2022-07-10T14:29:05;3.77;;;1.10;;
70715;SDS011;59053;50.832;12.882;2022-07-10T14:31:30;2.97;;;1.07;;
70715;SDS011;59053;50.832;12.882;2022-07-10T14:33:56;3.50;;;1.00;;
70715;SDS011;59053;50.832;12.882;2022-07-10T14:36:22;2.43;;;1.00;;
70715;SDS011;59053;50.832;12.882;2022-07-10T14:38:51;2.45;;;1.00;;
70715;SDS011;59053;50.832;12.882;2022-07-10T14:41:19;3.83;;;1.20;;
70715;SDS011;59053;50.832;12.882;2022-07-10T14:43:45;1.90;;;1.00;;
70715;SDS011;59053;50.832;12.882;2022-07-10T14:46:10;3.35;;;1.20;;
70715;SDS011;59053;50.832;12.882;2022-07-10T14:48:35;2.83;;;1.00;;
70715;SDS011;59053;50.832;12.882;2022-07-10T14:51:01;2.93;;;1.10;;
70715;SDS011;59053;50.832;12.882;2022-07-10T14:53:26;5.87;;;1.40;;
70715;SDS011;59053;50.832;12.882;2022-07-10T14:55:52;1.40;;;0.90;;
70715;SDS011;59053;50.832;12.882;2022-07-10T14:58:17;3.13;;;1.10;;
70715;SDS011;59053;50.832;12.882;2022-07-10T15:00:43;1.93;;;1.07;;
70715;SDS011;59053;50.832;12.882;2022-07-10T15:03:08;3.75;;;1.05;;
70715;SDS011;59053;50.832;12.882;2022-07-10T15:05:34;2.90;;;1.30;;
70715;SDS011;59053;50.832;12.882;2022-07-10T15:08:00;5.82;;;1.20;;